SVA1048 OEJN-OERK
Flight info
| Callsign | SVA1048 |
|---|---|
| Flight time | 1h 16m |
| Altitude | 35000 |
| Route | EGREP T532 ORDEM |
| Aircraft | B77W/H-SDE1E2E3FGHIJ2J3J4J5M1RWXY/LB1D1 |
Departure
| Time | 2026-04-28 22:13 |
|---|---|
| Airport | King Abdulaziz International Airport (OEJN) |
Arrival
| Time | 2026-04-28 23:30 |
|---|---|
| Airport | King Khalid International Airport (OERK) |
| Time | Latitude | Longitude | Altitude | Speed | Heading |
|---|---|---|---|---|---|
| 2026-04-28 21:54 | 21.66409 | 39.17120 | 35 ft | 0 kts | 92° |
| 2026-04-28 22:04 | 21.66409 | 39.17114 | 34 ft | 4 kts | 93° |
| 2026-04-28 22:04 | 21.66412 | 39.17085 | 32 ft | 4 kts | 101° |
| 2026-04-28 22:04 | 21.66419 | 39.17057 | 33 ft | 4 kts | 112° |
| 2026-04-28 22:05 | 21.66432 | 39.17032 | 33 ft | 4 kts | 135° |
| 2026-04-28 22:05 | 21.66451 | 39.17020 | 32 ft | 1 kts | 179° |
| 2026-04-28 22:07 | 21.66449 | 39.17020 | 33 ft | 1 kts | 178° |
| 2026-04-28 22:07 | 21.66448 | 39.17020 | 33 ft | 0 kts | 180° |
| 2026-04-28 22:07 | 21.66447 | 39.17020 | 33 ft | 0 kts | 180° |
| 2026-04-28 22:08 | 21.66442 | 39.17020 | 33 ft | 1 kts | 180° |
| 2026-04-28 22:08 | 21.66433 | 39.17020 | 33 ft | 2 kts | 180° |
| 2026-04-28 22:08 | 21.66417 | 39.17019 | 41 ft | 5 kts | 182° |
| 2026-04-28 22:08 | 21.66370 | 39.17014 | 35 ft | 7 kts | 191° |
| 2026-04-28 22:09 | 21.66320 | 39.16999 | 35 ft | 7 kts | 199° |
| 2026-04-28 22:09 | 21.66273 | 39.16975 | 35 ft | 8 kts | 207° |
| 2026-04-28 22:09 | 21.66248 | 39.16957 | 35 ft | 0 kts | 220° |
| 2026-04-28 22:09 | 21.66239 | 39.16949 | 35 ft | 7 kts | 220° |
| 2026-04-28 22:10 | 21.66174 | 39.16894 | 35 ft | 13 kts | 218° |
| 2026-04-28 22:10 | 21.66122 | 39.16819 | 35 ft | 13 kts | 266° |
| 2026-04-28 22:10 | 21.66182 | 39.16754 | 36 ft | 13 kts | 325° |
| 2026-04-28 22:10 | 21.66194 | 39.16667 | 36 ft | 10 kts | 249° |
| 2026-04-28 22:11 | 21.66192 | 39.16662 | 36 ft | 0 kts | 249° |
| 2026-04-28 22:11 | 21.66191 | 39.16661 | 36 ft | 1 kts | 249° |
| 2026-04-28 22:11 | 21.66189 | 39.16655 | 36 ft | 1 kts | 249° |
| 2026-04-28 22:12 | 21.66183 | 39.16637 | 36 ft | 4 kts | 249° |
| 2026-04-28 22:12 | 21.66166 | 39.16588 | 35 ft | 10 kts | 250° |
| 2026-04-28 22:12 | 21.66142 | 39.16516 | 36 ft | 10 kts | 251° |
| 2026-04-28 22:12 | 21.66157 | 39.16479 | 35 ft | 5 kts | 325° |
| 2026-04-28 22:13 | 21.66242 | 39.16442 | 35 ft | 28 kts | 339° |
| 2026-04-28 22:13 | 21.66664 | 39.16276 | 44 ft | 104 kts | 340° |
| 2026-04-28 22:13 | 21.67578 | 39.15920 | 50 ft | 171 kts | 341° |
| 2026-04-28 22:13 | 21.68734 | 39.15484 | 703 ft | 176 kts | 341° |
| 2026-04-28 22:14 | 21.69892 | 39.15026 | 1564 ft | 176 kts | 340° |
| 2026-04-28 22:14 | 21.71036 | 39.14562 | 2306 ft | 180 kts | 339° |
| 2026-04-28 22:14 | 21.72290 | 39.14052 | 2628 ft | 207 kts | 338° |
| 2026-04-28 22:14 | 21.73736 | 39.13459 | 2825 ft | 238 kts | 338° |
| 2026-04-28 22:15 | 21.75339 | 39.12817 | 3428 ft | 249 kts | 338° |
| 2026-04-28 22:15 | 21.76972 | 39.12182 | 4337 ft | 253 kts | 338° |
| 2026-04-28 22:15 | 21.78671 | 39.11521 | 5038 ft | 265 kts | 337° |
| 2026-04-28 22:15 | 21.80442 | 39.10824 | 5724 ft | 277 kts | 336° |
| 2026-04-28 22:16 | 21.82271 | 39.10103 | 6058 ft | 282 kts | 336° |
| 2026-04-28 22:16 | 21.84097 | 39.09384 | 6759 ft | 285 kts | 336° |
| 2026-04-28 22:16 | 21.85973 | 39.08666 | 7571 ft | 286 kts | 341° |
| 2026-04-28 22:16 | 21.88013 | 39.08607 | 8228 ft | 301 kts | 13° |
| 2026-04-28 22:17 | 21.89840 | 39.09718 | 9036 ft | 307 kts | 43° |
| 2026-04-28 22:17 | 21.91251 | 39.11447 | 9782 ft | 311 kts | 49° |
| 2026-04-28 22:17 | 21.92661 | 39.13264 | 10382 ft | 322 kts | 50° |
| 2026-04-28 22:17 | 21.94126 | 39.15164 | 10608 ft | 348 kts | 50° |
| 2026-04-28 22:18 | 21.95751 | 39.17280 | 10856 ft | 374 kts | 50° |
| 2026-04-28 22:18 | 21.97439 | 39.19482 | 11444 ft | 387 kts | 50° |
| 2026-04-28 22:18 | 21.99153 | 39.21718 | 12211 ft | 396 kts | 50° |
| 2026-04-28 22:18 | 22.00944 | 39.24050 | 13125 ft | 402 kts | 50° |
| 2026-04-28 22:19 | 22.02743 | 39.26392 | 13997 ft | 408 kts | 50° |
| 2026-04-28 22:19 | 22.04542 | 39.28730 | 14785 ft | 414 kts | 50° |
| 2026-04-28 22:19 | 22.06393 | 39.31135 | 15593 ft | 419 kts | 50° |
| 2026-04-28 22:19 | 22.08269 | 39.33574 | 16386 ft | 425 kts | 50° |
| 2026-04-28 22:20 | 22.10169 | 39.36044 | 17228 ft | 431 kts | 50° |
| 2026-04-28 22:20 | 22.12114 | 39.38573 | 18095 ft | 435 kts | 50° |
| 2026-04-28 22:20 | 22.14063 | 39.41109 | 18788 ft | 442 kts | 49° |
| 2026-04-28 22:20 | 22.16031 | 39.43639 | 19405 ft | 450 kts | 48° |
| 2026-04-28 22:21 | 22.18150 | 39.46223 | 20059 ft | 457 kts | 47° |
| 2026-04-28 22:21 | 22.20243 | 39.48779 | 20707 ft | 463 kts | 47° |
| 2026-04-28 22:21 | 22.22359 | 39.51434 | 21367 ft | 470 kts | 49° |
| 2026-04-28 22:21 | 22.24475 | 39.54166 | 21994 ft | 477 kts | 49° |
| 2026-04-28 22:22 | 22.26594 | 39.56957 | 22586 ft | 484 kts | 50° |
| 2026-04-28 22:22 | 22.28731 | 39.59800 | 23185 ft | 491 kts | 50° |
| 2026-04-28 22:22 | 22.30889 | 39.62683 | 23727 ft | 497 kts | 50° |
| 2026-04-28 22:22 | 22.33070 | 39.65595 | 24247 ft | 500 kts | 49° |
| 2026-04-28 22:23 | 22.35267 | 39.68523 | 24826 ft | 503 kts | 49° |
| 2026-04-28 22:23 | 22.37476 | 39.71466 | 25376 ft | 506 kts | 49° |
| 2026-04-28 22:23 | 22.39698 | 39.74427 | 25897 ft | 509 kts | 48° |
| 2026-04-28 22:23 | 22.41942 | 39.77417 | 26391 ft | 513 kts | 48° |
| 2026-04-28 22:24 | 22.44196 | 39.80421 | 26894 ft | 516 kts | 48° |
| 2026-04-28 22:24 | 22.46518 | 39.83382 | 27451 ft | 516 kts | 44° |
| 2026-04-28 22:24 | 22.49061 | 39.86115 | 27928 ft | 516 kts | 38° |
| 2026-04-28 22:24 | 22.51767 | 39.88686 | 28317 ft | 519 kts | 36° |
| 2026-04-28 22:25 | 22.54514 | 39.91244 | 28746 ft | 523 kts | 36° |
| 2026-04-28 22:25 | 22.57277 | 39.93824 | 29206 ft | 526 kts | 36° |
| 2026-04-28 22:25 | 22.60051 | 39.96435 | 29667 ft | 529 kts | 36° |
| 2026-04-28 22:25 | 22.62822 | 39.99062 | 30137 ft | 531 kts | 36° |
| 2026-04-28 22:26 | 22.65604 | 40.01716 | 30486 ft | 534 kts | 36° |
| 2026-04-28 22:26 | 22.68392 | 40.04383 | 30800 ft | 537 kts | 37° |
| 2026-04-28 22:26 | 22.71196 | 40.07070 | 31102 ft | 540 kts | 37° |
| 2026-04-28 22:26 | 22.74023 | 40.09779 | 31344 ft | 544 kts | 37° |
| 2026-04-28 22:27 | 22.76856 | 40.12498 | 31695 ft | 545 kts | 37° |
| 2026-04-28 22:27 | 22.79691 | 40.15219 | 32144 ft | 543 kts | 37° |
| 2026-04-28 22:27 | 22.82513 | 40.17930 | 32598 ft | 542 kts | 37° |
| 2026-04-28 22:27 | 22.85331 | 40.20637 | 33048 ft | 541 kts | 37° |
| 2026-04-28 22:28 | 22.88146 | 40.23341 | 33453 ft | 541 kts | 37° |
| 2026-04-28 22:28 | 22.90962 | 40.26046 | 33835 ft | 542 kts | 37° |
| 2026-04-28 22:28 | 22.93785 | 40.28760 | 34164 ft | 543 kts | 37° |
| 2026-04-28 22:28 | 22.96606 | 40.31474 | 34546 ft | 541 kts | 37° |
| 2026-04-28 22:29 | 22.99381 | 40.34146 | 34943 ft | 540 kts | 38° |
| 2026-04-28 22:29 | 23.05031 | 40.39590 | 35023 ft | 543 kts | 38° |
| 2026-04-28 22:30 | 23.10652 | 40.45016 | 35023 ft | 539 kts | 37° |
| 2026-04-28 22:30 | 23.16269 | 40.50440 | 35020 ft | 540 kts | 37° |
| 2026-04-28 22:31 | 23.21891 | 40.55874 | 35029 ft | 541 kts | 38° |
| 2026-04-28 22:31 | 23.26990 | 40.61924 | 35020 ft | 548 kts | 53° |
| 2026-04-28 22:32 | 23.30659 | 40.69221 | 35015 ft | 553 kts | 68° |
| 2026-04-28 22:32 | 23.33319 | 40.77074 | 35023 ft | 554 kts | 70° |
| 2026-04-28 22:33 | 23.35944 | 40.84963 | 35013 ft | 554 kts | 69° |
| 2026-04-28 22:33 | 23.38633 | 40.92822 | 35015 ft | 554 kts | 69° |
| 2026-04-28 22:34 | 23.41354 | 41.00669 | 35015 ft | 554 kts | 68° |
| 2026-04-28 22:34 | 23.44069 | 41.08506 | 35014 ft | 553 kts | 69° |
| 2026-04-28 22:35 | 23.46777 | 41.16355 | 35007 ft | 553 kts | 69° |
| 2026-04-28 22:35 | 23.49473 | 41.24193 | 35010 ft | 552 kts | 69° |
| 2026-04-28 22:36 | 23.52163 | 41.32027 | 35010 ft | 552 kts | 69° |
| 2026-04-28 22:36 | 23.54849 | 41.39863 | 35010 ft | 552 kts | 69° |
| 2026-04-28 22:37 | 23.57535 | 41.47716 | 35003 ft | 553 kts | 69° |
| 2026-04-28 22:37 | 23.60217 | 41.55571 | 35009 ft | 553 kts | 69° |
| 2026-04-28 22:38 | 23.62894 | 41.63426 | 34996 ft | 552 kts | 69° |
| 2026-04-28 22:38 | 23.65565 | 41.71276 | 35023 ft | 552 kts | 69° |
| 2026-04-28 22:39 | 23.68193 | 41.79101 | 35005 ft | 553 kts | 70° |
| 2026-04-28 22:39 | 23.70684 | 41.87046 | 35004 ft | 553 kts | 71° |
| 2026-04-28 22:40 | 23.73166 | 41.94997 | 35007 ft | 554 kts | 70° |
| 2026-04-28 22:40 | 23.75711 | 42.02924 | 34995 ft | 553 kts | 69° |
| 2026-04-28 22:41 | 23.78410 | 42.10784 | 35004 ft | 553 kts | 68° |
| 2026-04-28 22:41 | 23.80671 | 42.17299 | 34999 ft | 552 kts | 68° |
| 2026-04-28 22:42 | 23.83363 | 42.25149 | 34996 ft | 551 kts | 69° |
| 2026-04-28 22:42 | 23.86027 | 42.32994 | 35004 ft | 550 kts | 69° |
| 2026-04-28 22:43 | 23.88699 | 42.40884 | 35001 ft | 550 kts | 69° |
| 2026-04-28 22:43 | 23.91350 | 42.48721 | 35008 ft | 550 kts | 69° |
| 2026-04-28 22:44 | 23.93999 | 42.56564 | 35001 ft | 550 kts | 69° |
| 2026-04-28 22:44 | 23.96644 | 42.64408 | 34999 ft | 550 kts | 69° |
| 2026-04-28 22:45 | 23.99284 | 42.72254 | 35002 ft | 550 kts | 69° |
| 2026-04-28 22:45 | 24.01918 | 42.80098 | 35011 ft | 550 kts | 69° |
| 2026-04-28 22:46 | 24.04557 | 42.87970 | 35003 ft | 551 kts | 69° |
| 2026-04-28 22:46 | 24.07160 | 42.95803 | 34999 ft | 552 kts | 69° |
| 2026-04-28 22:47 | 24.09758 | 43.03701 | 34994 ft | 552 kts | 69° |
| 2026-04-28 22:47 | 24.12352 | 43.11604 | 35011 ft | 552 kts | 69° |
| 2026-04-28 22:48 | 24.14950 | 43.19518 | 34988 ft | 553 kts | 69° |
| 2026-04-28 22:48 | 24.17548 | 43.27447 | 34996 ft | 553 kts | 69° |
| 2026-04-28 22:49 | 24.19574 | 43.33644 | 34964 ft | 554 kts | 69° |
| 2026-04-28 22:49 | 24.22167 | 43.41586 | 34989 ft | 553 kts | 69° |
| 2026-04-28 22:50 | 24.24755 | 43.49521 | 34985 ft | 553 kts | 69° |
| 2026-04-28 22:50 | 24.26052 | 43.53504 | 34701 ft | 557 kts | 69° |
| 2026-04-28 22:50 | 24.27354 | 43.57511 | 34214 ft | 557 kts | 69° |
| 2026-04-28 22:50 | 24.28644 | 43.61486 | 33695 ft | 552 kts | 69° |
| 2026-04-28 22:51 | 24.29927 | 43.65443 | 33172 ft | 548 kts | 69° |
| 2026-04-28 22:51 | 24.31194 | 43.69353 | 32684 ft | 543 kts | 69° |
| 2026-04-28 22:51 | 24.32454 | 43.73246 | 32204 ft | 539 kts | 69° |
| 2026-04-28 22:51 | 24.33703 | 43.77107 | 31739 ft | 535 kts | 69° |
| 2026-04-28 22:52 | 24.34940 | 43.80935 | 31281 ft | 531 kts | 69° |
| 2026-04-28 22:52 | 24.36167 | 43.84737 | 30806 ft | 528 kts | 69° |
| 2026-04-28 22:52 | 24.37386 | 43.88517 | 30347 ft | 524 kts | 69° |
| 2026-04-28 22:52 | 24.38598 | 43.92278 | 29839 ft | 521 kts | 70° |
| 2026-04-28 22:53 | 24.39800 | 43.96010 | 29312 ft | 517 kts | 70° |
| 2026-04-28 22:53 | 24.40992 | 43.99717 | 28814 ft | 513 kts | 70° |
| 2026-04-28 22:53 | 24.42171 | 44.03387 | 28324 ft | 508 kts | 70° |
| 2026-04-28 22:53 | 24.43339 | 44.07026 | 27831 ft | 503 kts | 70° |
| 2026-04-28 22:54 | 24.44483 | 44.10638 | 27377 ft | 498 kts | 72° |
| 2026-04-28 22:54 | 24.45404 | 44.14282 | 26924 ft | 493 kts | 79° |
| 2026-04-28 22:54 | 24.46047 | 44.17955 | 26462 ft | 488 kts | 81° |
| 2026-04-28 22:54 | 24.46645 | 44.21609 | 26015 ft | 484 kts | 81° |
| 2026-04-28 22:55 | 24.47237 | 44.25231 | 25545 ft | 480 kts | 81° |
| 2026-04-28 22:55 | 24.47836 | 44.28822 | 25092 ft | 477 kts | 81° |
| 2026-04-28 22:55 | 24.48442 | 44.32390 | 24638 ft | 473 kts | 81° |
| 2026-04-28 22:55 | 24.49048 | 44.35928 | 24188 ft | 470 kts | 81° |
| 2026-04-28 22:56 | 24.49654 | 44.39442 | 23740 ft | 467 kts | 81° |
| 2026-04-28 22:56 | 24.50254 | 44.42930 | 23224 ft | 463 kts | 82° |
| 2026-04-28 22:56 | 24.50848 | 44.46390 | 22744 ft | 459 kts | 82° |
| 2026-04-28 22:56 | 24.51434 | 44.49817 | 22288 ft | 455 kts | 82° |
| 2026-04-28 22:57 | 24.52016 | 44.53211 | 21852 ft | 450 kts | 82° |
| 2026-04-28 22:57 | 24.52594 | 44.56556 | 21398 ft | 437 kts | 82° |
| 2026-04-28 22:57 | 24.53159 | 44.59816 | 20990 ft | 433 kts | 82° |
| 2026-04-28 22:57 | 24.53718 | 44.63050 | 20555 ft | 429 kts | 82° |
| 2026-04-28 22:58 | 24.54270 | 44.66259 | 20138 ft | 426 kts | 82° |
| 2026-04-28 22:58 | 24.54818 | 44.69449 | 19716 ft | 424 kts | 82° |
| 2026-04-28 22:58 | 24.55362 | 44.72622 | 19290 ft | 421 kts | 82° |
| 2026-04-28 22:58 | 24.55903 | 44.75779 | 18865 ft | 420 kts | 82° |
| 2026-04-28 22:59 | 24.56441 | 44.78926 | 18417 ft | 418 kts | 82° |
| 2026-04-28 22:59 | 24.56977 | 44.82060 | 17942 ft | 417 kts | 82° |
| 2026-04-28 22:59 | 24.57503 | 44.85141 | 17475 ft | 414 kts | 82° |
| 2026-04-28 22:59 | 24.58031 | 44.88237 | 17033 ft | 411 kts | 82° |
| 2026-04-28 23:00 | 24.58556 | 44.91315 | 16588 ft | 408 kts | 82° |
| 2026-04-28 23:00 | 24.59075 | 44.94370 | 16145 ft | 405 kts | 82° |
| 2026-04-28 23:00 | 24.59588 | 44.97385 | 15942 ft | 395 kts | 82° |
| 2026-04-28 23:00 | 24.60083 | 45.00305 | 15893 ft | 386 kts | 82° |
| 2026-04-28 23:01 | 24.60573 | 45.03215 | 15867 ft | 388 kts | 82° |
| 2026-04-28 23:01 | 24.61062 | 45.06123 | 15816 ft | 386 kts | 82° |
| 2026-04-28 23:01 | 24.61548 | 45.09019 | 15770 ft | 384 kts | 82° |
| 2026-04-28 23:01 | 24.62030 | 45.11894 | 15727 ft | 382 kts | 82° |
| 2026-04-28 23:02 | 24.62512 | 45.14769 | 15683 ft | 381 kts | 82° |
| 2026-04-28 23:02 | 24.62991 | 45.17630 | 15651 ft | 381 kts | 82° |
| 2026-04-28 23:02 | 24.63469 | 45.20491 | 15613 ft | 381 kts | 82° |
| 2026-04-28 23:02 | 24.63947 | 45.23354 | 15569 ft | 381 kts | 82° |
| 2026-04-28 23:03 | 24.64425 | 45.26224 | 15535 ft | 382 kts | 82° |
| 2026-04-28 23:03 | 24.64905 | 45.29101 | 15498 ft | 383 kts | 82° |
| 2026-04-28 23:03 | 24.65384 | 45.31981 | 15456 ft | 384 kts | 82° |
| 2026-04-28 23:03 | 24.65865 | 45.34870 | 15403 ft | 384 kts | 82° |
| 2026-04-28 23:04 | 24.66346 | 45.37764 | 15372 ft | 385 kts | 82° |
| 2026-04-28 23:04 | 24.67307 | 45.43563 | 15292 ft | 386 kts | 82° |
| 2026-04-28 23:04 | 24.67788 | 45.46465 | 15249 ft | 386 kts | 82° |
| 2026-04-28 23:05 | 24.68267 | 45.49365 | 15212 ft | 385 kts | 82° |
| 2026-04-28 23:05 | 24.68744 | 45.52254 | 15164 ft | 384 kts | 82° |
| 2026-04-28 23:05 | 24.69220 | 45.55143 | 15128 ft | 383 kts | 82° |
| 2026-04-28 23:05 | 24.69695 | 45.58028 | 15067 ft | 383 kts | 82° |
| 2026-04-28 23:06 | 24.70168 | 45.60901 | 15038 ft | 382 kts | 82° |
| 2026-04-28 23:06 | 24.70637 | 45.63752 | 14997 ft | 373 kts | 82° |
| 2026-04-28 23:06 | 24.71091 | 45.66511 | 14946 ft | 361 kts | 82° |
| 2026-04-28 23:06 | 24.71459 | 45.69208 | 14629 ft | 356 kts | 88° |
| 2026-04-28 23:07 | 24.71575 | 45.71925 | 14190 ft | 356 kts | 92° |
| 2026-04-28 23:07 | 24.71607 | 45.74636 | 13854 ft | 353 kts | 92° |
| 2026-04-28 23:07 | 24.71641 | 45.77332 | 13539 ft | 350 kts | 91° |
| 2026-04-28 23:07 | 24.71696 | 45.79977 | 13321 ft | 342 kts | 91° |
| 2026-04-28 23:08 | 24.71765 | 45.82517 | 12856 ft | 326 kts | 91° |
| 2026-04-28 23:08 | 24.71840 | 45.84976 | 12375 ft | 320 kts | 91° |
| 2026-04-28 23:08 | 24.71917 | 45.87431 | 11959 ft | 323 kts | 90° |
| 2026-04-28 23:08 | 24.71993 | 45.89871 | 11543 ft | 324 kts | 90° |
| 2026-04-28 23:09 | 24.72072 | 45.92351 | 11117 ft | 323 kts | 90° |
| 2026-04-28 23:09 | 24.72149 | 45.94842 | 10732 ft | 329 kts | 90° |
| 2026-04-28 23:09 | 24.72225 | 45.97315 | 10281 ft | 318 kts | 90° |
| 2026-04-28 23:09 | 24.72301 | 45.99708 | 9931 ft | 305 kts | 90° |
| 2026-04-28 23:10 | 24.72372 | 46.01981 | 9916 ft | 297 kts | 90° |
| 2026-04-28 23:10 | 24.72441 | 46.04285 | 9782 ft | 303 kts | 90° |
| 2026-04-28 23:10 | 24.72511 | 46.06596 | 9586 ft | 301 kts | 90° |
| 2026-04-28 23:10 | 24.72581 | 46.08879 | 9394 ft | 295 kts | 90° |
| 2026-04-28 23:11 | 24.72648 | 46.11112 | 9212 ft | 289 kts | 90° |
| 2026-04-28 23:11 | 24.72714 | 46.13304 | 9031 ft | 285 kts | 90° |
| 2026-04-28 23:11 | 24.72779 | 46.15466 | 8908 ft | 281 kts | 89° |
| 2026-04-28 23:11 | 24.72845 | 46.17626 | 8833 ft | 285 kts | 90° |
| 2026-04-28 23:12 | 24.72912 | 46.19824 | 8757 ft | 289 kts | 89° |
| 2026-04-28 23:12 | 24.72979 | 46.22037 | 8664 ft | 290 kts | 89° |
| 2026-04-28 23:12 | 24.73046 | 46.24242 | 8571 ft | 288 kts | 90° |
| 2026-04-28 23:12 | 24.73112 | 46.26438 | 8487 ft | 286 kts | 90° |
| 2026-04-28 23:13 | 24.73176 | 46.28622 | 8393 ft | 285 kts | 90° |
| 2026-04-28 23:13 | 24.73237 | 46.30794 | 8298 ft | 283 kts | 89° |
| 2026-04-28 23:13 | 24.73297 | 46.32951 | 8223 ft | 282 kts | 90° |
| 2026-04-28 23:13 | 24.73356 | 46.35101 | 8142 ft | 280 kts | 90° |
| 2026-04-28 23:14 | 24.73415 | 46.37241 | 8057 ft | 280 kts | 90° |
| 2026-04-28 23:14 | 24.73487 | 46.39375 | 7965 ft | 277 kts | 85° |
| 2026-04-28 23:14 | 24.74075 | 46.41382 | 7929 ft | 280 kts | 60° |
| 2026-04-28 23:14 | 24.75106 | 46.43231 | 7937 ft | 288 kts | 59° |
| 2026-04-28 23:15 | 24.76132 | 46.45137 | 7925 ft | 290 kts | 60° |
| 2026-04-28 23:15 | 24.77144 | 46.47047 | 7890 ft | 288 kts | 60° |
| 2026-04-28 23:15 | 24.78146 | 46.48943 | 7855 ft | 286 kts | 60° |
| 2026-04-28 23:15 | 24.79139 | 46.50825 | 7837 ft | 283 kts | 60° |
| 2026-04-28 23:16 | 24.80122 | 46.52692 | 7821 ft | 281 kts | 60° |
| 2026-04-28 23:16 | 24.81099 | 46.54552 | 7790 ft | 280 kts | 61° |
| 2026-04-28 23:16 | 24.82072 | 46.56406 | 7780 ft | 279 kts | 61° |
| 2026-04-28 23:16 | 24.83048 | 46.58266 | 7768 ft | 282 kts | 62° |
| 2026-04-28 23:17 | 24.83697 | 46.60285 | 7734 ft | 283 kts | 88° |
| 2026-04-28 23:17 | 24.83397 | 46.62400 | 7741 ft | 281 kts | 116° |
| 2026-04-28 23:17 | 24.82267 | 46.64114 | 7729 ft | 276 kts | 141° |
| 2026-04-28 23:17 | 24.80683 | 46.65263 | 7721 ft | 272 kts | 153° |
| 2026-04-28 23:18 | 24.79026 | 46.66281 | 7692 ft | 273 kts | 152° |
| 2026-04-28 23:18 | 24.77367 | 46.67313 | 7680 ft | 274 kts | 152° |
| 2026-04-28 23:18 | 24.75708 | 46.68350 | 7668 ft | 275 kts | 152° |
| 2026-04-28 23:18 | 24.74049 | 46.69388 | 7648 ft | 274 kts | 153° |
| 2026-04-28 23:19 | 24.72394 | 46.70428 | 7646 ft | 273 kts | 153° |
| 2026-04-28 23:19 | 24.70772 | 46.71450 | 7644 ft | 272 kts | 153° |
| 2026-04-28 23:19 | 24.69112 | 46.72495 | 7622 ft | 272 kts | 153° |
| 2026-04-28 23:19 | 24.67491 | 46.73516 | 7588 ft | 272 kts | 153° |
| 2026-04-28 23:20 | 24.65828 | 46.74563 | 7564 ft | 272 kts | 153° |
| 2026-04-28 23:20 | 24.64210 | 46.75580 | 7524 ft | 272 kts | 153° |
| 2026-04-28 23:20 | 24.62563 | 46.76611 | 7483 ft | 272 kts | 153° |
| 2026-04-28 23:20 | 24.60895 | 46.77654 | 7436 ft | 273 kts | 153° |
| 2026-04-28 23:21 | 24.59245 | 46.78686 | 7397 ft | 273 kts | 153° |
| 2026-04-28 23:21 | 24.57633 | 46.79764 | 7337 ft | 270 kts | 142° |
| 2026-04-28 23:21 | 24.56513 | 46.81410 | 7289 ft | 274 kts | 112° |
| 2026-04-28 23:21 | 24.56236 | 46.83447 | 7265 ft | 278 kts | 86° |
| 2026-04-28 23:22 | 24.56776 | 46.85480 | 7234 ft | 279 kts | 63° |
| 2026-04-28 23:22 | 24.57434 | 46.86738 | 7235 ft | 283 kts | 60° |
| 2026-04-28 23:22 | 24.59196 | 46.88837 | 7170 ft | 288 kts | 27° |
| 2026-04-28 23:22 | 24.61102 | 46.89413 | 7132 ft | 286 kts | 358° |
| 2026-04-28 23:23 | 24.63009 | 46.88982 | 7100 ft | 276 kts | 335° |
| 2026-04-28 23:23 | 24.64685 | 46.88066 | 7037 ft | 263 kts | 328° |
| 2026-04-28 23:23 | 24.66227 | 46.87073 | 6983 ft | 250 kts | 327° |
| 2026-04-28 23:23 | 24.67684 | 46.86128 | 6936 ft | 237 kts | 327° |
| 2026-04-28 23:24 | 24.69067 | 46.85242 | 6897 ft | 225 kts | 327° |
| 2026-04-28 23:24 | 24.70446 | 46.84364 | 6759 ft | 232 kts | 328° |
| 2026-04-28 23:24 | 24.71849 | 46.83473 | 6517 ft | 231 kts | 328° |
| 2026-04-28 23:24 | 24.72769 | 46.82890 | 6345 ft | 230 kts | 328° |
| 2026-04-28 23:25 | 24.74144 | 46.82021 | 6065 ft | 227 kts | 328° |
| 2026-04-28 23:25 | 24.75502 | 46.81163 | 5812 ft | 222 kts | 329° |
| 2026-04-28 23:25 | 24.76826 | 46.80326 | 5564 ft | 218 kts | 329° |
| 2026-04-28 23:25 | 24.78153 | 46.79482 | 5355 ft | 224 kts | 330° |
| 2026-04-28 23:26 | 24.79428 | 46.78678 | 5114 ft | 226 kts | 331° |
| 2026-04-28 23:26 | 24.80596 | 46.77941 | 4903 ft | 228 kts | 331° |
| 2026-04-28 23:26 | 24.81970 | 46.77070 | 4631 ft | 227 kts | 331° |
| 2026-04-28 23:26 | 24.83306 | 46.76222 | 4382 ft | 215 kts | 331° |
| 2026-04-28 23:27 | 24.84554 | 46.75431 | 4095 ft | 200 kts | 331° |
| 2026-04-28 23:27 | 24.85709 | 46.74698 | 3826 ft | 182 kts | 332° |
| 2026-04-28 23:27 | 24.86738 | 46.74045 | 3601 ft | 163 kts | 332° |
| 2026-04-28 23:27 | 24.87716 | 46.73427 | 3421 ft | 162 kts | 332° |
| 2026-04-28 23:28 | 24.88692 | 46.72809 | 3208 ft | 162 kts | 332° |
| 2026-04-28 23:28 | 24.89674 | 46.72188 | 2995 ft | 163 kts | 333° |
| 2026-04-28 23:28 | 24.90640 | 46.71579 | 2814 ft | 158 kts | 331° |
| 2026-04-28 23:28 | 24.91571 | 46.70960 | 2580 ft | 158 kts | 330° |
| 2026-04-28 23:29 | 24.92521 | 46.70371 | 2394 ft | 154 kts | 331° |
| 2026-04-28 23:29 | 24.93423 | 46.69806 | 2154 ft | 143 kts | 331° |
| 2026-04-28 23:29 | 24.94249 | 46.69289 | 2052 ft | 124 kts | 331° |
| 2026-04-28 23:29 | 24.94902 | 46.68875 | 2043 ft | 89 kts | 330° |
| 2026-04-28 23:30 | 24.95319 | 46.68613 | 2042 ft | 59 kts | 330° |
| 2026-04-28 23:30 | 24.95621 | 46.68421 | 2040 ft | 39 kts | 330° |
| 2026-04-28 23:30 | 24.95854 | 46.68342 | 2042 ft | 23 kts | 358° |
| 2026-04-28 23:30 | 24.95953 | 46.68364 | 2040 ft | 0 kts | 26° |
| 2026-04-28 23:31 | 24.95963 | 46.68370 | 2043 ft | 7 kts | 27° |
| 2026-04-28 23:31 | 24.96034 | 46.68452 | 2040 ft | 23 kts | 58° |
| 2026-04-28 23:32 | 24.96143 | 46.68659 | 2041 ft | 37 kts | 60° |
| 2026-04-28 23:32 | 24.96270 | 46.68900 | 2042 ft | 35 kts | 60° |
| 2026-04-28 23:32 | 24.96388 | 46.69125 | 2041 ft | 33 kts | 60° |
| 2026-04-28 23:32 | 24.96499 | 46.69336 | 2042 ft | 31 kts | 60° |
| 2026-04-28 23:33 | 24.96605 | 46.69535 | 2043 ft | 30 kts | 59° |
| 2026-04-28 23:33 | 24.96710 | 46.69733 | 2041 ft | 30 kts | 59° |
| 2026-04-28 23:33 | 24.96799 | 46.69901 | 2041 ft | 0 kts | 60° |
| 2026-04-28 23:35 | 24.96800 | 46.69902 | 2041 ft | 0 kts | 60° |
| 2026-04-28 23:35 | 24.96802 | 46.69907 | 2041 ft | 1 kts | 60° |
| 2026-04-28 23:35 | 24.96810 | 46.69921 | 2040 ft | 6 kts | 60° |
| 2026-04-28 23:36 | 24.96850 | 46.70000 | 2040 ft | 12 kts | 61° |
| 2026-04-28 23:36 | 24.96859 | 46.70043 | 2040 ft | 10 kts | 97° |
| 2026-04-28 23:36 | 24.96854 | 46.70057 | 2037 ft | 0 kts | 113° |
| 2026-04-28 23:36 | 24.96847 | 46.70069 | 2037 ft | 5 kts | 125° |
| 2026-04-28 23:37 | 24.96822 | 46.70091 | 2043 ft | 5 kts | 150° |
| 2026-04-28 23:37 | 24.96793 | 46.70109 | 2037 ft | 5 kts | 151° |
| 2026-04-28 23:37 | 24.96754 | 46.70132 | 2041 ft | 11 kts | 151° |
| 2026-04-28 23:37 | 24.96644 | 46.70196 | 2039 ft | 25 kts | 151° |
| 2026-04-28 23:38 | 24.96503 | 46.70288 | 2042 ft | 16 kts | 145° |
| 2026-04-28 23:38 | 24.96438 | 46.70309 | 2042 ft | 8 kts | 206° |
| 2026-04-28 23:38 | 24.96423 | 46.70267 | 2041 ft | 5 kts | 261° |
| 2026-04-28 23:38 | 24.96419 | 46.70240 | 2036 ft | 1 kts | 259° |
| 2026-04-28 23:39 | 24.96418 | 46.70234 | 2042 ft | 0 kts | 259° |
| 2026-04-28 23:39 | 24.96417 | 46.70230 | 2042 ft | 1 kts | 259° |
| 2026-04-28 23:39 | 24.96416 | 46.70223 | 2034 ft | 1 kts | 258° |
| 2026-04-28 23:39 | 24.96416 | 46.70221 | 2034 ft | 0 kts | 258° |